Continental, Ohio
Current Conditions -  °F | °C
As of 4:06 PM on Tuesday 21 Oct 2014 (Local Time) from KDFI Reporting Station
Overcast Overcast  
Wind Chill: 44°   Ceiling: 2800
Heat Index: 49°   Visibility: 10mi
Dew Point: 38°   Wind: 14mph
Humidity: 66%   Direction: 10°N
Pressure: 30.11"   Gusts: 24mph
Location:  41.1°N, 84.27°W
Report Text: KDFI 212006Z AUTO 01012G21KT 10SM BKN028 OVC035 09/03 A3011 RMK AO2 T00940033
Loading
Personal Weather Stations






























Interactive Weather Map
Tropical Storm Tracking
New forecast layout! Learn more

10-Day Weather Forecast

Advertisements
Track Severe Weather on mobile